MMMX/MEX METAR and TAF weather

Enter ICAO airport designator
Station Type Date Time Source
MMMX METAR 2019/10/15 07:45 UTC NOAA

MMMX 150745Z 06006KT 9SM FEW020 SCT080 15/09 A3032 NOSIG RMK 8/530 HZY


Station Type Date Time Source
MMMX Decoded METAR 2019/10/15 07:45 UTC NOAA

Mexico City / Licenci, Mexico (MMMX) 19-26N 099-06W
Oct 15, 2019 - 03:45 AM EDT / 2019.10.15 0745 UTC
Wind: from the ENE (060 degrees) at 7 MPH (6 KT):0
Visibility: 9 mile(s):0
Sky conditions: partly cloudy
Temperature: 59 F (15 C)
Dew Point: 48 F (9 C)
Relative Humidity: 67%
Pressure (altimeter): 30.32 in. Hg (1026 hPa)
ob: MMMX 150745Z 06006KT 9SM FEW020 SCT080 15/09 A3032 NOSIG RMK 8/530 HZY
cycle: 8

Station Type Date Time Source
MMMX TAF 2019/10/15 06:12 UTC NOAA

TAF MMMX 150411Z 1506/1612 34008KT P6SM SCT020 SCT080 TX27/1521Z TN14/1512Z
TEMPO 1513/1517 5SM HZ FU
FM151800 03010KT P6SM SCT025 BKN080
BECMG 1605/1607 01005KT

Example: see airport list